createdAt,value
2017-12-10T00:00:54.520Z,50.60
2017-12-10T00:03:22.782Z,50.20
2017-12-10T00:05:50.269Z,50.30
2017-12-10T00:08:17.770Z,50.40
2017-12-10T00:10:45.287Z,50.60
2017-12-10T00:13:12.777Z,50.60
2017-12-10T00:15:40.284Z,50.80
2017-12-10T00:18:07.771Z,50.50
2017-12-10T00:20:35.282Z,50.70
2017-12-10T00:23:02.781Z,50.50
2017-12-10T00:25:31.030Z,51.20
2017-12-10T00:27:58.760Z,51.20
2017-12-10T00:30:26.281Z,51.30
2017-12-10T00:32:54.539Z,51.30
2017-12-10T00:35:22.938Z,51.40
2017-12-10T00:37:50.438Z,51.40
2017-12-10T00:40:18.734Z,51.70
2017-12-10T00:42:46.241Z,51.70
2017-12-10T00:45:13.848Z,52.10
2017-12-10T00:47:42.113Z,52.60
2017-12-10T00:50:10.362Z,53.10
2017-12-10T00:52:37.985Z,53.10
2017-12-10T00:55:06.260Z,53.20
2017-12-10T00:57:33.761Z,53.30
2017-12-10T01:00:02.028Z,53.70
2017-12-10T01:02:29.494Z,53.90
2017-12-10T01:04:57.912Z,54.00
2017-12-10T01:07:25.418Z,54.10
2017-12-10T01:09:52.902Z,54.40
2017-12-10T01:14:55.195Z,54.60
2017-12-10T01:17:22.672Z,54.40
2017-12-10T01:19:50.204Z,54.60
2017-12-10T01:22:18.717Z,54.70
2017-12-10T01:24:46.219Z,54.70
2017-12-10T01:27:14.569Z,54.40
2017-12-10T01:29:42.069Z,54.40
2017-12-10T01:32:17.530Z,53.80
2017-12-10T01:34:45.030Z,53.90
2017-12-10T01:37:19.283Z,54.20
2017-12-10T01:39:47.536Z,54.10
2017-12-10T01:42:15.787Z,54.10
2017-12-10T01:47:21.906Z,54.30
2017-12-10T01:49:55.984Z,54.40
2017-12-10T01:52:23.469Z,54.50
2017-12-10T01:54:50.948Z,54.40
2017-12-10T01:57:18.425Z,54.10
2017-12-10T01:59:45.896Z,54.40
2017-12-10T02:02:14.176Z,54.30
2017-12-10T02:04:41.679Z,54.20
2017-12-10T02:07:09.913Z,54.50
2017-12-10T02:09:38.191Z,54.70
2017-12-10T02:12:06.427Z,54.50
2017-12-10T02:14:33.939Z,54.60
2017-12-10T02:17:01.714Z,54.70
2017-12-10T02:19:29.235Z,54.90
2017-12-10T02:21:57.537Z,55.00
2017-12-10T02:24:25.787Z,55.50
2017-12-10T02:26:53.375Z,55.00
2017-12-10T02:29:20.954Z,55.20
2017-12-10T02:31:49.474Z,55.40
2017-12-10T02:34:16.988Z,55.30
2017-12-10T02:36:44.482Z,55.50
2017-12-10T02:39:11.960Z,55.40
2017-12-10T02:41:40.222Z,55.90
2017-12-10T02:44:07.740Z,55.90
2017-12-10T02:46:35.231Z,56.10
2017-12-10T02:49:02.701Z,55.80
2017-12-10T02:51:30.358Z,55.90
2017-12-10T02:53:57.865Z,55.40
2017-12-10T02:56:26.465Z,55.50
2017-12-10T02:58:54.012Z,55.60
2017-12-10T03:01:22.276Z,55.10
2017-12-10T03:03:50.580Z,54.80
2017-12-10T03:06:18.872Z,55.00
2017-12-10T03:08:46.355Z,55.20
2017-12-10T03:11:13.859Z,54.60
2017-12-10T03:13:42.109Z,54.90
2017-12-10T03:16:09.574Z,54.90
2017-12-10T03:18:37.050Z,54.80
2017-12-10T03:21:04.611Z,54.70
2017-12-10T03:23:32.899Z,54.60
2017-12-10T03:26:01.221Z,54.70
2017-12-10T03:28:29.472Z,54.60
2017-12-10T03:30:56.978Z,54.60
2017-12-10T03:33:24.454Z,54.20
2017-12-10T03:35:52.025Z,54.00
2017-12-10T03:38:19.522Z,53.90
2017-12-10T03:40:46.995Z,54.30
2017-12-10T03:43:14.499Z,54.50
2017-12-10T03:45:42.756Z,55.10
2017-12-10T03:48:10.255Z,54.70
2017-12-10T03:50:37.774Z,54.70
2017-12-10T03:53:06.015Z,54.40
2017-12-10T03:55:33.491Z,54.40
2017-12-10T03:58:01.765Z,54.40
2017-12-10T04:00:29.999Z,54.30
2017-12-10T04:02:57.732Z,54.30
2017-12-10T04:05:25.202Z,54.10
2017-12-10T04:07:52.842Z,54.20
2017-12-10T04:10:20.374Z,54.30
2017-12-10T04:12:48.685Z,54.80
2017-12-10T04:15:16.963Z,55.40
2017-12-10T04:17:44.709Z,54.90
2017-12-10T04:20:12.957Z,54.80
2017-12-10T04:22:40.739Z,54.80
2017-12-10T04:25:08.230Z,54.80
2017-12-10T04:27:35.800Z,55.10
2017-12-10T04:30:03.318Z,55.00
2017-12-10T04:32:30.811Z,54.80
2017-12-10T04:34:59.103Z,54.40
2017-12-10T04:37:26.593Z,54.40
2017-12-10T04:39:54.092Z,53.90
2017-12-10T04:42:22.444Z,54.10
2017-12-10T04:44:49.966Z,54.00
2017-12-10T04:47:18.281Z,53.90
2017-12-10T04:49:46.597Z,53.90
2017-12-10T04:52:14.857Z,53.60
2017-12-10T04:54:43.156Z,53.60
2017-12-10T04:57:10.629Z,53.40
2017-12-10T04:59:38.134Z,53.20
2017-12-10T05:02:05.658Z,53.40
2017-12-10T05:04:33.274Z,53.20
2017-12-10T05:07:00.826Z,53.30
2017-12-10T05:09:28.335Z,53.40
2017-12-10T05:11:55.818Z,53.20
2017-12-10T05:14:23.421Z,53.40
2017-12-10T05:16:50.962Z,53.00
2017-12-10T05:19:18.471Z,53.20
2017-12-10T05:21:45.980Z,53.30
2017-12-10T05:24:13.561Z,53.60
2017-12-10T05:26:41.120Z,53.30
2017-12-10T05:29:08.719Z,53.50
2017-12-10T05:31:36.219Z,53.30
2017-12-10T05:34:04.495Z,54.00
2017-12-10T05:36:32.090Z,53.60
2017-12-10T05:38:59.751Z,53.60
2017-12-10T05:41:27.226Z,53.30
2017-12-10T05:43:54.712Z,53.00
2017-12-10T05:46:23.072Z,52.60
2017-12-10T05:48:51.366Z,52.20
2017-12-10T05:51:18.905Z,52.10
2017-12-10T05:53:46.483Z,51.50
2017-12-10T05:56:13.952Z,52.00
2017-12-10T05:58:42.214Z,52.10
2017-12-10T06:01:09.741Z,52.20
2017-12-10T06:03:37.379Z,52.10
2017-12-10T06:06:05.889Z,51.90
2017-12-10T06:08:34.144Z,52.20
2017-12-10T06:11:01.673Z,52.20
2017-12-10T06:13:30.848Z,51.70
2017-12-10T06:15:58.342Z,51.70
2017-12-10T06:18:25.985Z,51.50
2017-12-10T06:20:54.338Z,51.30
2017-12-10T06:23:22.130Z,51.50
2017-12-10T06:25:49.744Z,51.50
2017-12-10T06:28:17.296Z,51.10
2017-12-10T06:30:44.770Z,50.90
2017-12-10T06:33:13.041Z,50.80
2017-12-10T06:35:40.515Z,50.70
2017-12-10T06:38:08.811Z,50.50
2017-12-10T06:40:36.314Z,50.40
2017-12-10T06:43:04.619Z,51.00
2017-12-10T06:45:32.997Z,50.20
2017-12-10T06:48:00.570Z,50.20
2017-12-10T06:50:28.220Z,50.30
2017-12-10T06:52:56.479Z,50.60
2017-12-10T06:55:24.762Z,50.10
2017-12-10T06:57:53.797Z,50.40
2017-12-10T07:00:22.077Z,50.70
2017-12-10T07:02:49.730Z,50.80
2017-12-10T07:05:17.256Z,50.60
2017-12-10T07:07:44.731Z,50.50
2017-12-10T07:10:12.234Z,50.80
2017-12-10T07:12:40.487Z,50.60
2017-12-10T07:15:08.095Z,50.60
2017-12-10T07:17:36.669Z,49.80
2017-12-10T07:20:04.216Z,50.00
2017-12-10T07:22:31.885Z,50.10
2017-12-10T07:25:00.180Z,50.10
2017-12-10T07:27:27.850Z,50.00
2017-12-10T07:29:55.331Z,49.90
2017-12-10T07:32:22.874Z,50.70
2017-12-10T07:34:51.154Z,49.30
2017-12-10T07:37:18.645Z,49.20
2017-12-10T07:39:46.300Z,49.00
2017-12-10T07:42:15.059Z,48.30
2017-12-10T07:44:43.346Z,47.90
2017-12-10T07:47:11.589Z,47.50
2017-12-10T07:49:39.886Z,47.70
2017-12-10T07:52:07.389Z,47.60
2017-12-10T07:54:34.884Z,47.10
2017-12-10T07:57:02.392Z,46.60
2017-12-10T07:59:29.881Z,45.70
2017-12-10T08:01:58.877Z,44.90
2017-12-10T08:04:26.598Z,44.80
2017-12-10T08:06:54.130Z,45.20
2017-12-10T08:09:22.355Z,45.30
2017-12-10T08:11:50.836Z,46.10
2017-12-10T08:14:18.367Z,46.10
2017-12-10T08:16:46.624Z,46.60
2017-12-10T08:19:14.137Z,46.50
2017-12-10T08:21:42.528Z,46.80
2017-12-10T08:24:10.878Z,46.70
2017-12-10T08:26:39.147Z,45.90
2017-12-10T08:29:06.647Z,46.00
2017-12-10T08:31:35.147Z,45.00
2017-12-10T08:34:03.425Z,43.90
2017-12-10T08:36:31.308Z,43.90
2017-12-10T08:38:58.806Z,42.60
2017-12-10T08:41:26.458Z,42.40
2017-12-10T08:43:53.969Z,41.30
2017-12-10T08:46:21.476Z,42.10
2017-12-10T08:48:49.896Z,41.80
2017-12-10T08:51:18.178Z,41.30
2017-12-10T08:53:45.732Z,41.20
2017-12-10T08:56:13.211Z,41.30
2017-12-10T08:58:40.825Z,41.50
2017-12-10T09:01:09.118Z,41.50
2017-12-10T09:03:38.186Z,41.10
2017-12-10T09:06:06.452Z,40.30
2017-12-10T09:08:34.796Z,40.60
2017-12-10T09:11:08.662Z,40.40
2017-12-10T09:13:36.133Z,40.50
2017-12-10T09:16:03.634Z,39.90
2017-12-10T09:18:31.114Z,40.10
2017-12-10T09:20:58.608Z,39.90
2017-12-10T09:23:26.056Z,40.20
2017-12-10T09:25:53.600Z,40.00
2017-12-10T09:28:21.145Z,40.30
2017-12-10T09:30:48.856Z,40.40
2017-12-10T09:33:16.451Z,40.80
2017-12-10T09:35:44.697Z,41.00
2017-12-10T09:38:12.189Z,41.00
2017-12-10T09:40:40.434Z,41.00
2017-12-10T09:43:08.000Z,41.00
2017-12-10T09:45:35.462Z,40.20
2017-12-10T09:48:03.712Z,39.50
2017-12-10T09:50:31.195Z,39.40
2017-12-10T09:52:58.650Z,39.10
2017-12-10T09:55:26.136Z,39.50
2017-12-10T09:57:54.454Z,38.80
2017-12-10T10:00:22.192Z,38.80
2017-12-10T10:02:50.546Z,39.60
2017-12-10T10:05:18.111Z,39.60
2017-12-10T10:07:46.341Z,40.00
2017-12-10T10:10:13.866Z,39.90
2017-12-10T10:12:41.385Z,39.10
2017-12-10T10:15:08.895Z,38.90
2017-12-10T10:17:36.478Z,39.00
2017-12-10T10:20:04.700Z,38.30
2017-12-10T10:22:33.014Z,38.70
2017-12-10T10:25:00.564Z,38.60
2017-12-10T10:27:28.089Z,38.60
2017-12-10T10:29:55.612Z,37.70
2017-12-10T10:32:23.185Z,37.30
2017-12-10T10:34:50.752Z,37.60
2017-12-10T10:37:18.473Z,37.10
2017-12-10T10:39:46.930Z,37.20
2017-12-10T10:42:14.405Z,37.20
2017-12-10T10:44:41.927Z,37.40
2017-12-10T10:47:09.469Z,37.50
2017-12-10T10:49:37.840Z,37.20
2017-12-10T10:52:05.417Z,37.20
2017-12-10T10:54:34.072Z,37.60
2017-12-10T10:57:01.587Z,37.60
2017-12-10T10:59:29.107Z,38.10
2017-12-10T11:01:57.353Z,37.90
2017-12-10T11:04:24.934Z,37.90
2017-12-10T11:06:53.180Z,38.80
2017-12-10T11:09:20.687Z,38.80
2017-12-10T11:11:48.330Z,38.80
2017-12-10T11:14:17.584Z,38.90
2017-12-10T11:16:45.054Z,38.90
2017-12-10T11:19:12.625Z,38.90
2017-12-10T11:21:40.466Z,39.20
2017-12-10T11:24:07.958Z,39.30
2017-12-10T11:26:36.218Z,39.60
2017-12-10T11:29:03.744Z,39.60
2017-12-10T11:31:31.295Z,40.00
2017-12-10T11:33:58.806Z,40.40
2017-12-10T11:36:26.296Z,40.70
2017-12-10T11:38:53.849Z,40.90
2017-12-10T11:41:21.351Z,41.20
2017-12-10T11:43:49.815Z,41.60
2017-12-10T11:46:17.342Z,41.60
2017-12-10T11:48:45.261Z,42.10
2017-12-10T11:51:12.782Z,42.30
2017-12-10T11:53:40.388Z,43.90
2017-12-10T11:56:07.861Z,44.90
2017-12-10T11:58:36.141Z,49.20
2017-12-10T12:01:04.418Z,51.10
2017-12-10T12:03:32.821Z,52.40
2017-12-10T12:06:00.299Z,52.40
2017-12-10T12:08:27.822Z,52.80
2017-12-10T12:10:55.306Z,54.10
2017-12-10T12:13:22.819Z,55.70
2017-12-10T12:15:51.141Z,59.00
2017-12-10T12:18:18.849Z,58.40
2017-12-10T12:20:47.185Z,61.60
2017-12-10T12:23:14.732Z,61.50
2017-12-10T12:25:42.237Z,62.30
2017-12-10T12:28:09.764Z,63.50
2017-12-10T12:30:37.259Z,64.40
2017-12-10T12:33:05.525Z,66.00
2017-12-10T12:35:33.118Z,66.00
2017-12-10T12:38:00.578Z,67.80
2017-12-10T12:40:28.058Z,68.40
2017-12-10T12:42:55.583Z,69.10
2017-12-10T12:45:23.142Z,69.90
2017-12-10T12:47:50.929Z,70.10
2017-12-10T12:50:18.439Z,70.40
2017-12-10T12:52:46.716Z,72.00
2017-12-10T12:55:14.401Z,72.00
2017-12-10T12:57:41.989Z,71.70
2017-12-10T13:00:09.477Z,72.20
2017-12-10T13:02:38.231Z,71.80
2017-12-10T13:05:05.806Z,71.20
2017-12-10T13:07:33.336Z,71.20
2017-12-10T13:10:01.615Z,71.20
2017-12-10T13:12:29.127Z,71.20
2017-12-10T13:14:56.584Z,71.60
2017-12-10T13:17:24.199Z,71.30
2017-12-10T13:19:51.729Z,71.20
2017-12-10T13:22:20.016Z,71.40
2017-12-10T13:24:47.512Z,71.40
2017-12-10T13:27:14.998Z,71.30
2017-12-10T13:29:42.542Z,71.10
2017-12-10T13:32:11.052Z,71.40
2017-12-10T13:34:39.356Z,71.50
2017-12-10T13:37:07.330Z,71.50
2017-12-10T13:39:35.593Z,71.00
2017-12-10T13:42:03.926Z,71.70
2017-12-10T13:44:31.414Z,71.80
2017-12-10T13:46:58.949Z,72.20
2017-12-10T13:49:26.705Z,72.10
2017-12-10T13:51:56.412Z,72.20
2017-12-10T13:54:24.941Z,72.40
2017-12-10T13:56:52.580Z,72.50
2017-12-10T13:59:20.130Z,72.20
2017-12-10T14:01:47.707Z,70.90
2017-12-10T14:04:15.206Z,70.60
2017-12-10T14:06:42.684Z,70.50
2017-12-10T14:09:10.192Z,69.90
2017-12-10T14:11:37.653Z,70.20
2017-12-10T14:14:05.943Z,70.60
2017-12-10T14:16:34.188Z,70.60
2017-12-10T14:19:01.689Z,70.70
2017-12-10T14:21:29.970Z,70.20
2017-12-10T14:23:57.558Z,70.20
2017-12-10T14:26:25.084Z,70.00
2017-12-10T14:28:52.627Z,69.90
2017-12-10T14:31:20.140Z,69.70
2017-12-10T14:33:47.640Z,71.00
2017-12-10T14:36:15.164Z,71.50
2017-12-10T14:38:43.457Z,70.90
2017-12-10T14:41:10.941Z,71.10
2017-12-10T14:43:39.214Z,71.40
2017-12-10T14:46:07.573Z,71.30
2017-12-10T14:48:35.114Z,71.20
2017-12-10T14:51:02.603Z,71.30
2017-12-10T14:53:30.121Z,71.00
2017-12-10T14:55:57.672Z,71.30
2017-12-10T14:58:25.926Z,71.40
2017-12-10T15:00:53.503Z,71.50
2017-12-10T15:03:21.183Z,71.20
2017-12-10T15:05:48.767Z,70.60
2017-12-10T15:08:16.303Z,71.00
2017-12-10T15:10:43.810Z,70.80
2017-12-10T15:13:11.305Z,70.80
2017-12-10T15:15:38.834Z,71.30
2017-12-10T15:18:06.320Z,72.30
2017-12-10T15:20:33.834Z,72.70
2017-12-10T15:23:01.343Z,72.80
2017-12-10T15:25:28.838Z,72.90
2017-12-10T15:27:56.316Z,73.00
2017-12-10T15:30:23.799Z,72.80
2017-12-10T15:32:51.328Z,73.30
2017-12-10T15:35:18.819Z,73.50
2017-12-10T15:37:46.445Z,73.80
2017-12-10T15:40:13.968Z,73.70
2017-12-10T15:42:42.227Z,73.10
2017-12-10T15:45:09.755Z,73.10
2017-12-10T15:47:37.281Z,73.30
2017-12-10T15:50:04.844Z,73.70
2017-12-10T15:52:32.511Z,73.90
2017-12-10T15:55:00.085Z,73.80
2017-12-10T15:57:28.577Z,73.40
2017-12-10T15:59:56.896Z,73.40
2017-12-10T16:02:25.173Z,73.20
2017-12-10T16:04:52.675Z,73.40
2017-12-10T16:07:20.965Z,73.50
2017-12-10T16:09:50.402Z,74.00
2017-12-10T16:12:17.922Z,74.00
2017-12-10T16:14:45.400Z,74.10
2017-12-10T16:17:12.984Z,74.40
2017-12-10T16:19:40.518Z,75.10
2017-12-10T16:22:08.101Z,75.90
2017-12-10T16:24:35.619Z,76.30
2017-12-10T16:27:03.128Z,77.40
2017-12-10T16:29:31.419Z,78.30
2017-12-10T16:31:59.743Z,79.40
2017-12-10T16:34:27.250Z,79.40
2017-12-10T16:36:54.750Z,79.70
2017-12-10T16:39:22.284Z,79.80
2017-12-10T16:41:49.863Z,80.00
2017-12-10T16:44:17.332Z,79.60
2017-12-10T16:46:44.917Z,79.50
2017-12-10T16:49:12.394Z,78.90
2017-12-10T16:51:39.863Z,78.50
2017-12-10T16:54:09.103Z,77.60
2017-12-10T16:56:36.593Z,77.60
2017-12-10T16:59:04.061Z,77.30
2017-12-10T17:01:31.574Z,76.70
2017-12-10T17:03:59.061Z,75.90
2017-12-10T17:06:26.852Z,74.90
2017-12-10T17:08:54.323Z,74.30
2017-12-10T17:11:21.851Z,73.70
2017-12-10T17:13:49.405Z,72.70
2017-12-10T17:16:16.898Z,72.40
2017-12-10T17:18:44.507Z,72.10
2017-12-10T17:21:12.025Z,72.10
2017-12-10T17:23:39.575Z,72.10
2017-12-10T17:26:07.069Z,70.90
2017-12-10T17:28:34.575Z,71.00
2017-12-10T17:31:03.679Z,70.20
2017-12-10T17:33:31.174Z,70.10
2017-12-10T17:35:58.724Z,70.00
2017-12-10T17:38:26.236Z,69.80
2017-12-10T17:40:53.706Z,69.60
2017-12-10T17:43:22.133Z,69.70
2017-12-10T17:45:49.741Z,69.70
2017-12-10T17:48:17.283Z,69.90
2017-12-10T17:50:45.620Z,70.10
2017-12-10T17:53:13.486Z,70.20
2017-12-10T17:55:41.039Z,70.20
2017-12-10T17:58:08.839Z,70.30
2017-12-10T18:00:36.371Z,70.50
2017-12-10T18:03:04.652Z,70.30
2017-12-10T18:05:32.135Z,70.20
2017-12-10T18:07:59.669Z,70.30
2017-12-10T18:10:27.246Z,69.40
2017-12-10T18:12:54.721Z,69.40
2017-12-10T18:15:22.267Z,69.00
2017-12-10T18:17:50.316Z,68.90
2017-12-10T18:20:18.024Z,68.60
2017-12-10T18:22:45.699Z,68.30
2017-12-10T18:25:13.293Z,68.30
2017-12-10T18:27:40.818Z,67.70
2017-12-10T18:30:08.451Z,67.80
2017-12-10T18:32:36.009Z,67.20
2017-12-10T18:35:03.505Z,67.00
2017-12-10T18:37:30.997Z,66.50
2017-12-10T18:39:58.881Z,66.50
2017-12-10T18:42:26.411Z,66.40
2017-12-10T18:44:54.100Z,66.30
2017-12-10T18:47:21.593Z,66.50
2017-12-10T18:49:49.636Z,66.60
2017-12-10T18:52:17.326Z,66.00
2017-12-10T18:54:44.883Z,66.40
2017-12-10T18:57:12.458Z,65.40
2017-12-10T18:59:40.705Z,64.90
2017-12-10T19:02:08.200Z,64.90
2017-12-10T19:04:35.768Z,64.90
2017-12-10T19:07:03.530Z,64.70
2017-12-10T19:09:31.132Z,64.50
2017-12-10T19:11:59.500Z,64.40
2017-12-10T19:14:27.305Z,64.40
2017-12-10T19:16:54.778Z,64.40
2017-12-10T19:19:22.292Z,64.70
2017-12-10T19:21:49.853Z,64.40
2017-12-10T19:24:18.104Z,64.00
2017-12-10T19:26:45.594Z,64.00
2017-12-10T19:29:13.386Z,64.00
2017-12-10T19:31:40.962Z,64.20
2017-12-10T19:34:08.680Z,63.40
2017-12-10T19:36:36.175Z,63.50
2017-12-10T19:39:03.715Z,63.30
2017-12-10T19:41:31.244Z,63.80
2017-12-10T19:43:59.509Z,63.10
2017-12-10T19:46:27.011Z,63.20
2017-12-10T19:48:54.614Z,62.60
2017-12-10T19:51:23.129Z,62.50
2017-12-10T19:53:50.797Z,62.50
2017-12-10T19:56:18.781Z,62.10
2017-12-10T19:58:46.492Z,62.40
2017-12-10T20:01:14.036Z,62.20
2017-12-10T20:03:41.544Z,62.30
2017-12-10T20:06:09.218Z,62.20
2017-12-10T20:08:36.693Z,62.40
2017-12-10T20:11:04.180Z,62.20
2017-12-10T20:13:32.812Z,61.70
2017-12-10T20:16:00.303Z,61.70
2017-12-10T20:18:28.929Z,62.00
2017-12-10T20:20:56.443Z,62.10
2017-12-10T20:23:23.961Z,62.20
2017-12-10T20:25:51.503Z,62.20
2017-12-10T20:28:19.080Z,62.40
2017-12-10T20:30:47.338Z,62.30
2017-12-10T20:33:15.767Z,62.90
2017-12-10T20:35:43.245Z,62.40
2017-12-10T20:38:10.764Z,62.40
2017-12-10T20:40:40.614Z,62.30
2017-12-10T20:43:08.228Z,62.40
2017-12-10T20:45:35.722Z,62.20
2017-12-10T20:48:03.253Z,62.70
2017-12-10T20:50:30.939Z,62.50
2017-12-10T20:52:58.431Z,62.70
2017-12-10T20:55:25.925Z,62.80
2017-12-10T20:57:53.533Z,62.90
2017-12-10T21:00:21.796Z,63.10
2017-12-10T21:02:49.291Z,63.20
2017-12-10T21:05:16.836Z,63.40
2017-12-10T21:07:44.310Z,64.00
2017-12-10T21:10:11.905Z,64.90
2017-12-10T21:12:39.389Z,65.60
2017-12-10T21:15:06.905Z,66.00
2017-12-10T21:17:34.379Z,66.60
2017-12-10T21:20:02.104Z,66.90
2017-12-10T21:22:31.136Z,67.20
2017-12-10T21:24:58.619Z,67.10
2017-12-10T21:27:26.260Z,67.40
2017-12-10T21:29:54.793Z,68.10
2017-12-10T21:32:23.210Z,68.40
2017-12-10T21:34:50.684Z,68.30
2017-12-10T21:37:18.957Z,68.20
2017-12-10T21:39:46.661Z,68.20
2017-12-10T21:42:14.163Z,67.30
2017-12-10T21:44:41.644Z,65.50
2017-12-10T21:47:09.926Z,62.90
2017-12-10T21:49:38.241Z,61.90
2017-12-10T21:52:05.735Z,62.70
2017-12-10T21:54:34.004Z,60.70
2017-12-10T21:57:01.496Z,60.70
2017-12-10T21:59:28.967Z,60.40
2017-12-10T22:01:56.470Z,60.10
2017-12-10T22:04:24.253Z,59.50
2017-12-10T22:06:52.732Z,58.80
2017-12-10T22:09:21.049Z,58.80
2017-12-10T22:11:49.321Z,58.40
2017-12-10T22:14:16.976Z,58.40
2017-12-10T22:16:44.554Z,58.10
2017-12-10T22:19:12.875Z,58.00
2017-12-10T22:21:40.339Z,58.00
2017-12-10T22:24:07.809Z,58.10
2017-12-10T22:26:35.292Z,58.20
2017-12-10T22:29:02.790Z,57.90
2017-12-10T22:31:30.288Z,57.50
2017-12-10T22:33:57.785Z,58.30
2017-12-10T22:36:25.360Z,58.10
2017-12-10T22:38:52.879Z,58.10
2017-12-10T22:41:20.359Z,57.70
2017-12-10T22:43:47.857Z,57.60
2017-12-10T22:46:15.382Z,58.00
2017-12-10T22:48:43.020Z,57.40
2017-12-10T22:51:10.515Z,57.50
2017-12-10T22:53:38.006Z,57.00
2017-12-10T22:56:05.776Z,57.10
2017-12-10T22:58:33.283Z,57.50
2017-12-10T23:01:01.518Z,58.50
2017-12-10T23:03:28.998Z,58.50
2017-12-10T23:05:56.451Z,58.00
2017-12-10T23:08:25.023Z,57.40
2017-12-10T23:10:52.581Z,57.30
2017-12-10T23:13:20.059Z,57.40
2017-12-10T23:15:47.726Z,58.10
2017-12-10T23:18:15.376Z,57.50
2017-12-10T23:20:44.425Z,57.10
2017-12-10T23:23:11.914Z,57.90
2017-12-10T23:25:39.449Z,57.80
2017-12-10T23:28:07.712Z,59.00
2017-12-10T23:30:35.270Z,58.80
2017-12-10T23:33:02.797Z,58.80
2017-12-10T23:35:30.260Z,58.90
2017-12-10T23:37:57.733Z,58.90
2017-12-10T23:40:25.270Z,58.60
2017-12-10T23:42:52.749Z,58.60
2017-12-10T23:45:20.306Z,58.60
2017-12-10T23:47:47.848Z,58.60
2017-12-10T23:50:15.347Z,58.90
2017-12-10T23:52:42.872Z,58.60
2017-12-10T23:55:11.105Z,59.10
2017-12-10T23:57:39.653Z,58.20
